sensor_id;sensor_type;location;lat;lon;timestamp;P1;durP1;ratioP1;P2;durP2;ratioP2
69912;SDS011;57198;52.082;5.108;2023-09-08T00:01:09;7.30;;;6.28;;
69912;SDS011;57198;52.082;5.108;2023-09-08T00:03:36;8.77;;;6.07;;
69912;SDS011;57198;52.082;5.108;2023-09-08T00:06:04;8.35;;;6.20;;
69912;SDS011;57198;52.082;5.108;2023-09-08T00:08:31;11.17;;;5.90;;
69912;SDS011;57198;52.082;5.108;2023-09-08T00:10:59;6.45;;;5.40;;
69912;SDS011;57198;52.082;5.108;2023-09-08T00:13:26;9.15;;;6.45;;
69912;SDS011;57198;52.082;5.108;2023-09-08T00:15:54;6.53;;;5.88;;
69912;SDS011;57198;52.082;5.108;2023-09-08T00:18:21;6.88;;;6.22;;
69912;SDS011;57198;52.082;5.108;2023-09-08T00:20:49;9.13;;;6.47;;
69912;SDS011;57198;52.082;5.108;2023-09-08T00:23:16;6.95;;;6.25;;
69912;SDS011;57198;52.082;5.108;2023-09-08T00:25:43;7.53;;;6.65;;
69912;SDS011;57198;52.082;5.108;2023-09-08T00:28:11;8.07;;;6.32;;
69912;SDS011;57198;52.082;5.108;2023-09-08T00:30:38;8.25;;;7.47;;
69912;SDS011;57198;52.082;5.108;2023-09-08T00:33:05;8.73;;;7.00;;
69912;SDS011;57198;52.082;5.108;2023-09-08T00:35:35;8.20;;;5.50;;
69912;SDS011;57198;52.082;5.108;2023-09-08T00:38:02;8.77;;;6.13;;
69912;SDS011;57198;52.082;5.108;2023-09-08T00:40:30;6.97;;;6.28;;
69912;SDS011;57198;52.082;5.108;2023-09-08T00:42:59;9.05;;;7.05;;
69912;SDS011;57198;52.082;5.108;2023-09-08T00:45:26;6.73;;;6.10;;
69912;SDS011;57198;52.082;5.108;2023-09-08T00:47:55;8.35;;;6.90;;
69912;SDS011;57198;52.082;5.108;2023-09-08T00:50:23;8.60;;;7.32;;
69912;SDS011;57198;52.082;5.108;2023-09-08T00:52:50;7.50;;;6.80;;
69912;SDS011;57198;52.082;5.108;2023-09-08T00:55:17;12.13;;;8.57;;
69912;SDS011;57198;52.082;5.108;2023-09-08T00:57:45;9.33;;;7.63;;
69912;SDS011;57198;52.082;5.108;2023-09-08T01:00:12;8.05;;;7.35;;
69912;SDS011;57198;52.082;5.108;2023-09-08T01:02:40;8.52;;;7.63;;
69912;SDS011;57198;52.082;5.108;2023-09-08T01:05:09;11.35;;;7.85;;
69912;SDS011;57198;52.082;5.108;2023-09-08T01:07:36;10.95;;;7.82;;
69912;SDS011;57198;52.082;5.108;2023-09-08T01:10:04;8.97;;;7.03;;
69912;SDS011;57198;52.082;5.108;2023-09-08T01:12:33;8.98;;;7.60;;
69912;SDS011;57198;52.082;5.108;2023-09-08T01:15:01;9.65;;;8.73;;
69912;SDS011;57198;52.082;5.108;2023-09-08T01:17:29;8.52;;;7.55;;
69912;SDS011;57198;52.082;5.108;2023-09-08T01:19:57;8.93;;;8.02;;
69912;SDS011;57198;52.082;5.108;2023-09-08T01:25:04;10.73;;;7.55;;
69912;SDS011;57198;52.082;5.108;2023-09-08T01:27:35;9.77;;;8.13;;
69912;SDS011;57198;52.082;5.108;2023-09-08T01:30:02;10.35;;;8.48;;
69912;SDS011;57198;52.082;5.108;2023-09-08T01:32:31;10.73;;;8.93;;
69912;SDS011;57198;52.082;5.108;2023-09-08T01:34:59;10.60;;;9.00;;
69912;SDS011;57198;52.082;5.108;2023-09-08T01:37:27;10.55;;;8.63;;
69912;SDS011;57198;52.082;5.108;2023-09-08T01:39:54;9.30;;;8.20;;
69912;SDS011;57198;52.082;5.108;2023-09-08T01:42:21;9.40;;;8.38;;
69912;SDS011;57198;52.082;5.108;2023-09-08T01:44:49;10.25;;;8.10;;
69912;SDS011;57198;52.082;5.108;2023-09-08T01:47:16;9.77;;;8.17;;
69912;SDS011;57198;52.082;5.108;2023-09-08T01:49:44;13.38;;;9.13;;
69912;SDS011;57198;52.082;5.108;2023-09-08T01:52:11;10.25;;;8.75;;
69912;SDS011;57198;52.082;5.108;2023-09-08T01:54:38;8.95;;;7.95;;
69912;SDS011;57198;52.082;5.108;2023-09-08T01:57:06;9.30;;;8.27;;
69912;SDS011;57198;52.082;5.108;2023-09-08T01:59:34;11.37;;;9.40;;
69912;SDS011;57198;52.082;5.108;2023-09-08T02:02:03;11.82;;;9.15;;
69912;SDS011;57198;52.082;5.108;2023-09-08T02:04:31;12.13;;;9.43;;
69912;SDS011;57198;52.082;5.108;2023-09-08T02:06:58;12.52;;;8.88;;
69912;SDS011;57198;52.082;5.108;2023-09-08T02:12:00;11.43;;;8.20;;
69912;SDS011;57198;52.082;5.108;2023-09-08T02:14:28;8.85;;;8.00;;
69912;SDS011;57198;52.082;5.108;2023-09-08T02:16:55;10.13;;;8.50;;
69912;SDS011;57198;52.082;5.108;2023-09-08T02:19:23;8.48;;;7.55;;
69912;SDS011;57198;52.082;5.108;2023-09-08T02:21:50;12.52;;;8.80;;
69912;SDS011;57198;52.082;5.108;2023-09-08T02:24:18;10.33;;;7.83;;
69912;SDS011;57198;52.082;5.108;2023-09-08T02:26:45;10.00;;;8.02;;
69912;SDS011;57198;52.082;5.108;2023-09-08T02:29:13;12.27;;;10.02;;
69912;SDS011;57198;52.082;5.108;2023-09-08T02:31:41;10.85;;;8.63;;
69912;SDS011;57198;52.082;5.108;2023-09-08T02:34:08;12.05;;;8.75;;
69912;SDS011;57198;52.082;5.108;2023-09-08T02:36:36;9.03;;;8.10;;
69912;SDS011;57198;52.082;5.108;2023-09-08T02:39:04;9.18;;;8.02;;
69912;SDS011;57198;52.082;5.108;2023-09-08T02:41:32;10.05;;;8.18;;
69912;SDS011;57198;52.082;5.108;2023-09-08T02:44:02;11.00;;;9.70;;
69912;SDS011;57198;52.082;5.108;2023-09-08T02:46:29;11.13;;;10.02;;
69912;SDS011;57198;52.082;5.108;2023-09-08T02:48:57;9.43;;;8.23;;
69912;SDS011;57198;52.082;5.108;2023-09-08T02:51:25;14.73;;;9.27;;
69912;SDS011;57198;52.082;5.108;2023-09-08T02:53:53;12.15;;;10.20;;
69912;SDS011;57198;52.082;5.108;2023-09-08T02:56:21;9.55;;;8.57;;
69912;SDS011;57198;52.082;5.108;2023-09-08T02:58:48;12.35;;;9.40;;
69912;SDS011;57198;52.082;5.108;2023-09-08T03:01:16;10.60;;;9.50;;
69912;SDS011;57198;52.082;5.108;2023-09-08T03:03:47;12.15;;;9.73;;
69912;SDS011;57198;52.082;5.108;2023-09-08T03:06:18;12.82;;;9.75;;
69912;SDS011;57198;52.082;5.108;2023-09-08T03:08:47;11.02;;;9.02;;
69912;SDS011;57198;52.082;5.108;2023-09-08T03:11:14;12.38;;;9.35;;
69912;SDS011;57198;52.082;5.108;2023-09-08T03:13:41;11.30;;;10.13;;
69912;SDS011;57198;52.082;5.108;2023-09-08T03:16:09;13.65;;;10.10;;
69912;SDS011;57198;52.082;5.108;2023-09-08T03:18:37;11.95;;;9.60;;
69912;SDS011;57198;52.082;5.108;2023-09-08T03:21:05;12.70;;;9.50;;
69912;SDS011;57198;52.082;5.108;2023-09-08T03:23:40;11.40;;;10.30;;
69912;SDS011;57198;52.082;5.108;2023-09-08T03:26:09;10.57;;;9.53;;
69912;SDS011;57198;52.082;5.108;2023-09-08T03:28:36;11.32;;;8.75;;
69912;SDS011;57198;52.082;5.108;2023-09-08T03:31:05;11.25;;;9.23;;
69912;SDS011;57198;52.082;5.108;2023-09-08T03:33:34;13.20;;;10.18;;
69912;SDS011;57198;52.082;5.108;2023-09-08T03:36:03;12.30;;;10.88;;
69912;SDS011;57198;52.082;5.108;2023-09-08T03:38:31;9.87;;;8.87;;
69912;SDS011;57198;52.082;5.108;2023-09-08T03:40:59;14.27;;;11.00;;
69912;SDS011;57198;52.082;5.108;2023-09-08T03:43:26;14.82;;;11.73;;
69912;SDS011;57198;52.082;5.108;2023-09-08T03:45:54;10.85;;;9.75;;
69912;SDS011;57198;52.082;5.108;2023-09-08T03:48:21;14.73;;;10.88;;
69912;SDS011;57198;52.082;5.108;2023-09-08T03:50:49;14.10;;;11.03;;
69912;SDS011;57198;52.082;5.108;2023-09-08T03:53:16;11.82;;;10.32;;
69912;SDS011;57198;52.082;5.108;2023-09-08T03:55:44;14.70;;;10.93;;
69912;SDS011;57198;52.082;5.108;2023-09-08T03:58:13;15.18;;;10.85;;
69912;SDS011;57198;52.082;5.108;2023-09-08T04:00:42;11.40;;;9.98;;
69912;SDS011;57198;52.082;5.108;2023-09-08T04:03:09;10.53;;;9.33;;
69912;SDS011;57198;52.082;5.108;2023-09-08T04:05:37;13.00;;;11.13;;
69912;SDS011;57198;52.082;5.108;2023-09-08T04:08:05;13.18;;;11.80;;
69912;SDS011;57198;52.082;5.108;2023-09-08T04:10:32;12.25;;;10.70;;
69912;SDS011;57198;52.082;5.108;2023-09-08T04:12:59;12.45;;;10.80;;
69912;SDS011;57198;52.082;5.108;2023-09-08T04:15:27;14.53;;;11.27;;
69912;SDS011;57198;52.082;5.108;2023-09-08T04:17:54;12.52;;;10.25;;
69912;SDS011;57198;52.082;5.108;2023-09-08T04:20:24;13.98;;;10.45;;
69912;SDS011;57198;52.082;5.108;2023-09-08T04:22:52;13.40;;;11.15;;
69912;SDS011;57198;52.082;5.108;2023-09-08T04:25:21;14.48;;;11.07;;
69912;SDS011;57198;52.082;5.108;2023-09-08T04:27:48;11.60;;;10.00;;
69912;SDS011;57198;52.082;5.108;2023-09-08T04:30:16;12.55;;;11.25;;
69912;SDS011;57198;52.082;5.108;2023-09-08T04:32:44;15.15;;;11.25;;
69912;SDS011;57198;52.082;5.108;2023-09-08T04:35:12;14.27;;;10.60;;
69912;SDS011;57198;52.082;5.108;2023-09-08T04:37:39;12.40;;;9.15;;
69912;SDS011;57198;52.082;5.108;2023-09-08T04:40:07;13.70;;;10.53;;
69912;SDS011;57198;52.082;5.108;2023-09-08T04:42:35;11.95;;;9.90;;
69912;SDS011;57198;52.082;5.108;2023-09-08T04:45:03;15.60;;;11.40;;
69912;SDS011;57198;52.082;5.108;2023-09-08T04:47:32;11.38;;;10.27;;
69912;SDS011;57198;52.082;5.108;2023-09-08T04:49:59;13.50;;;11.80;;
69912;SDS011;57198;52.082;5.108;2023-09-08T04:52:27;13.47;;;10.47;;
69912;SDS011;57198;52.082;5.108;2023-09-08T04:54:54;10.13;;;9.13;;
69912;SDS011;57198;52.082;5.108;2023-09-08T04:57:22;12.43;;;11.00;;
69912;SDS011;57198;52.082;5.108;2023-09-08T04:59:54;13.77;;;10.48;;
69912;SDS011;57198;52.082;5.108;2023-09-08T05:02:21;12.43;;;10.80;;
69912;SDS011;57198;52.082;5.108;2023-09-08T05:04:49;14.83;;;9.77;;
69912;SDS011;57198;52.082;5.108;2023-09-08T05:07:17;15.18;;;11.75;;
69912;SDS011;57198;52.082;5.108;2023-09-08T05:09:46;17.55;;;10.90;;
69912;SDS011;57198;52.082;5.108;2023-09-08T05:12:14;15.23;;;11.32;;
69912;SDS011;57198;52.082;5.108;2023-09-08T05:14:41;15.95;;;11.80;;
69912;SDS011;57198;52.082;5.108;2023-09-08T05:17:09;11.50;;;9.97;;
69912;SDS011;57198;52.082;5.108;2023-09-08T05:19:36;15.70;;;11.63;;
69912;SDS011;57198;52.082;5.108;2023-09-08T05:22:05;12.52;;;10.68;;
69912;SDS011;57198;52.082;5.108;2023-09-08T05:24:33;15.13;;;12.13;;
69912;SDS011;57198;52.082;5.108;2023-09-08T05:27:01;14.55;;;10.32;;
69912;SDS011;57198;52.082;5.108;2023-09-08T05:29:29;11.43;;;9.70;;
69912;SDS011;57198;52.082;5.108;2023-09-08T05:31:56;13.10;;;11.07;;
69912;SDS011;57198;52.082;5.108;2023-09-08T05:34:24;13.43;;;11.55;;
69912;SDS011;57198;52.082;5.108;2023-09-08T05:36:51;13.70;;;12.20;;
69912;SDS011;57198;52.082;5.108;2023-09-08T05:39:19;15.30;;;11.27;;
69912;SDS011;57198;52.082;5.108;2023-09-08T05:41:46;14.47;;;12.10;;
69912;SDS011;57198;52.082;5.108;2023-09-08T05:44:14;19.95;;;11.77;;
69912;SDS011;57198;52.082;5.108;2023-09-08T05:46:41;16.02;;;13.00;;
69912;SDS011;57198;52.082;5.108;2023-09-08T05:49:09;21.42;;;11.52;;
69912;SDS011;57198;52.082;5.108;2023-09-08T05:51:36;20.35;;;12.68;;
69912;SDS011;57198;52.082;5.108;2023-09-08T05:54:04;16.17;;;12.53;;
69912;SDS011;57198;52.082;5.108;2023-09-08T05:56:33;15.15;;;12.18;;
69912;SDS011;57198;52.082;5.108;2023-09-08T05:59:00;14.38;;;12.75;;
69912;SDS011;57198;52.082;5.108;2023-09-08T06:01:29;17.20;;;12.85;;
69912;SDS011;57198;52.082;5.108;2023-09-08T06:03:57;14.38;;;12.05;;
69912;SDS011;57198;52.082;5.108;2023-09-08T06:06:27;13.37;;;12.07;;
69912;SDS011;57198;52.082;5.108;2023-09-08T06:08:55;16.98;;;12.82;;
69912;SDS011;57198;52.082;5.108;2023-09-08T06:11:23;15.90;;;13.15;;
69912;SDS011;57198;52.082;5.108;2023-09-08T06:13:50;14.75;;;13.15;;
69912;SDS011;57198;52.082;5.108;2023-09-08T06:16:19;14.60;;;13.15;;
69912;SDS011;57198;52.082;5.108;2023-09-08T06:18:46;15.30;;;13.03;;
69912;SDS011;57198;52.082;5.108;2023-09-08T06:21:17;20.65;;;12.18;;
69912;SDS011;57198;52.082;5.108;2023-09-08T06:23:45;18.77;;;13.98;;
69912;SDS011;57198;52.082;5.108;2023-09-08T06:26:13;15.55;;;13.80;;
69912;SDS011;57198;52.082;5.108;2023-09-08T06:28:40;17.67;;;13.45;;
69912;SDS011;57198;52.082;5.108;2023-09-08T06:31:09;21.47;;;13.53;;
69912;SDS011;57198;52.082;5.108;2023-09-08T06:33:39;19.35;;;14.23;;
69912;SDS011;57198;52.082;5.108;2023-09-08T06:36:06;16.20;;;14.00;;
69912;SDS011;57198;52.082;5.108;2023-09-08T06:38:34;15.00;;;12.80;;
69912;SDS011;57198;52.082;5.108;2023-09-08T06:41:08;17.42;;;13.57;;
69912;SDS011;57198;52.082;5.108;2023-09-08T06:43:36;19.67;;;14.40;;
69912;SDS011;57198;52.082;5.108;2023-09-08T06:46:09;18.92;;;13.65;;
69912;SDS011;57198;52.082;5.108;2023-09-08T06:48:36;18.35;;;14.25;;
69912;SDS011;57198;52.082;5.108;2023-09-08T06:51:04;16.77;;;14.05;;
69912;SDS011;57198;52.082;5.108;2023-09-08T06:53:32;16.77;;;14.52;;
69912;SDS011;57198;52.082;5.108;2023-09-08T06:56:00;18.73;;;14.00;;
69912;SDS011;57198;52.082;5.108;2023-09-08T06:58:28;18.38;;;13.93;;
69912;SDS011;57198;52.082;5.108;2023-09-08T07:00:56;16.65;;;14.63;;
69912;SDS011;57198;52.082;5.108;2023-09-08T07:03:24;15.80;;;13.95;;
69912;SDS011;57198;52.082;5.108;2023-09-08T07:05:54;15.10;;;13.23;;
69912;SDS011;57198;52.082;5.108;2023-09-08T07:08:22;19.40;;;13.17;;
69912;SDS011;57198;52.082;5.108;2023-09-08T07:10:53;15.77;;;13.23;;
69912;SDS011;57198;52.082;5.108;2023-09-08T07:13:21;16.83;;;13.80;;
69912;SDS011;57198;52.082;5.108;2023-09-08T07:15:49;17.20;;;13.82;;
69912;SDS011;57198;52.082;5.108;2023-09-08T07:18:16;16.15;;;14.48;;
69912;SDS011;57198;52.082;5.108;2023-09-08T07:20:47;23.77;;;14.87;;
69912;SDS011;57198;52.082;5.108;2023-09-08T07:23:16;22.90;;;15.00;;
69912;SDS011;57198;52.082;5.108;2023-09-08T07:25:48;21.60;;;15.30;;
69912;SDS011;57198;52.082;5.108;2023-09-08T07:28:19;17.17;;;15.15;;
69912;SDS011;57198;52.082;5.108;2023-09-08T07:30:50;17.58;;;15.00;;
69912;SDS011;57198;52.082;5.108;2023-09-08T07:33:18;15.70;;;14.10;;
69912;SDS011;57198;52.082;5.108;2023-09-08T07:35:47;18.42;;;14.85;;
69912;SDS011;57198;52.082;5.108;2023-09-08T07:38:14;20.33;;;15.60;;
69912;SDS011;57198;52.082;5.108;2023-09-08T07:40:42;17.77;;;14.13;;
69912;SDS011;57198;52.082;5.108;2023-09-08T07:43:10;16.27;;;14.30;;
69912;SDS011;57198;52.082;5.108;2023-09-08T07:45:37;15.87;;;14.17;;
69912;SDS011;57198;52.082;5.108;2023-09-08T07:48:07;19.08;;;13.82;;
69912;SDS011;57198;52.082;5.108;2023-09-08T07:50:34;16.60;;;14.80;;
69912;SDS011;57198;52.082;5.108;2023-09-08T07:53:01;17.90;;;14.30;;
69912;SDS011;57198;52.082;5.108;2023-09-08T07:55:29;17.65;;;14.43;;
69912;SDS011;57198;52.082;5.108;2023-09-08T07:57:57;17.43;;;14.03;;
69912;SDS011;57198;52.082;5.108;2023-09-08T08:00:24;18.02;;;13.25;;
69912;SDS011;57198;52.082;5.108;2023-09-08T08:02:53;19.50;;;13.18;;
69912;SDS011;57198;52.082;5.108;2023-09-08T08:05:21;21.70;;;13.57;;
69912;SDS011;57198;52.082;5.108;2023-09-08T08:07:49;22.30;;;13.70;;
69912;SDS011;57198;52.082;5.108;2023-09-08T08:10:17;19.77;;;13.47;;
69912;SDS011;57198;52.082;5.108;2023-09-08T08:12:44;16.70;;;13.60;;
69912;SDS011;57198;52.082;5.108;2023-09-08T08:15:11;17.95;;;14.27;;
69912;SDS011;57198;52.082;5.108;2023-09-08T08:17:39;15.45;;;13.73;;
69912;SDS011;57198;52.082;5.108;2023-09-08T08:20:08;18.83;;;14.02;;
69912;SDS011;57198;52.082;5.108;2023-09-08T08:22:36;18.00;;;12.50;;
69912;SDS011;57198;52.082;5.108;2023-09-08T08:25:04;21.10;;;14.23;;
69912;SDS011;57198;52.082;5.108;2023-09-08T08:27:32;16.33;;;13.43;;
69912;SDS011;57198;52.082;5.108;2023-09-08T08:29:59;13.82;;;12.07;;
69912;SDS011;57198;52.082;5.108;2023-09-08T08:32:28;15.77;;;12.65;;
69912;SDS011;57198;52.082;5.108;2023-09-08T08:34:55;18.07;;;11.87;;
69912;SDS011;57198;52.082;5.108;2023-09-08T08:37:23;15.85;;;13.57;;
69912;SDS011;57198;52.082;5.108;2023-09-08T08:39:50;14.00;;;12.50;;
69912;SDS011;57198;52.082;5.108;2023-09-08T08:42:18;13.48;;;11.95;;
69912;SDS011;57198;52.082;5.108;2023-09-08T08:44:48;13.90;;;11.82;;
69912;SDS011;57198;52.082;5.108;2023-09-08T08:47:16;13.90;;;12.33;;
69912;SDS011;57198;52.082;5.108;2023-09-08T08:49:45;18.50;;;12.77;;
69912;SDS011;57198;52.082;5.108;2023-09-08T08:52:13;13.90;;;11.63;;
69912;SDS011;57198;52.082;5.108;2023-09-08T08:54:41;13.77;;;11.70;;
69912;SDS011;57198;52.082;5.108;2023-09-08T08:57:09;14.02;;;11.90;;
69912;SDS011;57198;52.082;5.108;2023-09-08T08:59:38;14.10;;;11.03;;
69912;SDS011;57198;52.082;5.108;2023-09-08T09:02:08;15.95;;;11.07;;
69912;SDS011;57198;52.082;5.108;2023-09-08T09:04:36;15.38;;;11.80;;
69912;SDS011;57198;52.082;5.108;2023-09-08T09:07:05;15.57;;;12.75;;
69912;SDS011;57198;52.082;5.108;2023-09-08T09:09:33;17.98;;;11.57;;
69912;SDS011;57198;52.082;5.108;2023-09-08T09:12:01;15.23;;;10.57;;
69912;SDS011;57198;52.082;5.108;2023-09-08T09:14:32;12.40;;;10.98;;
69912;SDS011;57198;52.082;5.108;2023-09-08T09:17:01;12.38;;;10.93;;
69912;SDS011;57198;52.082;5.108;2023-09-08T09:19:31;11.95;;;10.82;;
69912;SDS011;57198;52.082;5.108;2023-09-08T09:21:59;15.48;;;11.13;;
69912;SDS011;57198;52.082;5.108;2023-09-08T09:24:31;13.50;;;11.37;;
69912;SDS011;57198;52.082;5.108;2023-09-08T09:27:00;14.32;;;10.93;;
69912;SDS011;57198;52.082;5.108;2023-09-08T09:29:28;13.30;;;11.52;;
69912;SDS011;57198;52.082;5.108;2023-09-08T09:31:57;13.38;;;9.73;;
69912;SDS011;57198;52.082;5.108;2023-09-08T09:34:25;12.07;;;8.65;;
69912;SDS011;57198;52.082;5.108;2023-09-08T09:36:53;14.83;;;11.87;;
69912;SDS011;57198;52.082;5.108;2023-09-08T09:39:21;9.57;;;7.50;;
69912;SDS011;57198;52.082;5.108;2023-09-08T09:41:53;11.25;;;9.35;;
69912;SDS011;57198;52.082;5.108;2023-09-08T09:44:21;11.73;;;9.23;;
69912;SDS011;57198;52.082;5.108;2023-09-08T09:46:51;12.82;;;9.20;;
69912;SDS011;57198;52.082;5.108;2023-09-08T09:49:18;14.70;;;9.07;;
69912;SDS011;57198;52.082;5.108;2023-09-08T09:51:47;9.73;;;8.73;;
69912;SDS011;57198;52.082;5.108;2023-09-08T09:54:16;10.88;;;8.80;;
69912;SDS011;57198;52.082;5.108;2023-09-08T09:56:44;11.35;;;9.15;;
69912;SDS011;57198;52.082;5.108;2023-09-08T09:59:16;9.93;;;8.63;;
69912;SDS011;57198;52.082;5.108;2023-09-08T10:01:44;15.03;;;8.37;;
69912;SDS011;57198;52.082;5.108;2023-09-08T10:04:12;12.52;;;8.20;;
69912;SDS011;57198;52.082;5.108;2023-09-08T10:06:42;11.85;;;8.80;;
69912;SDS011;57198;52.082;5.108;2023-09-08T10:09:10;10.75;;;7.43;;
69912;SDS011;57198;52.082;5.108;2023-09-08T10:11:47;11.32;;;7.97;;
69912;SDS011;57198;52.082;5.108;2023-09-08T10:14:16;8.97;;;6.30;;
69912;SDS011;57198;52.082;5.108;2023-09-08T10:16:45;10.95;;;6.55;;
69912;SDS011;57198;52.082;5.108;2023-09-08T10:19:16;9.48;;;7.50;;
69912;SDS011;57198;52.082;5.108;2023-09-08T10:21:47;12.32;;;6.03;;
69912;SDS011;57198;52.082;5.108;2023-09-08T10:24:17;10.38;;;6.82;;
69912;SDS011;57198;52.082;5.108;2023-09-08T10:26:59;7.93;;;5.10;;
69912;SDS011;57198;52.082;5.108;2023-09-08T10:29:27;7.72;;;5.45;;
69912;SDS011;57198;52.082;5.108;2023-09-08T10:31:55;11.05;;;5.40;;
69912;SDS011;57198;52.082;5.108;2023-09-08T10:34:23;6.63;;;5.90;;
69912;SDS011;57198;52.082;5.108;2023-09-08T10:36:52;9.95;;;6.93;;
69912;SDS011;57198;52.082;5.108;2023-09-08T10:39:27;9.77;;;7.27;;
69912;SDS011;57198;52.082;5.108;2023-09-08T10:45:00;5.43;;;4.65;;
69912;SDS011;57198;52.082;5.108;2023-09-08T10:47:31;7.95;;;6.18;;
69912;SDS011;57198;52.082;5.108;2023-09-08T10:50:00;10.65;;;6.93;;
69912;SDS011;57198;52.082;5.108;2023-09-08T10:52:29;6.90;;;5.17;;
69912;SDS011;57198;52.082;5.108;2023-09-08T10:54:59;6.55;;;4.10;;
69912;SDS011;57198;52.082;5.108;2023-09-08T10:57:28;8.23;;;3.85;;
69912;SDS011;57198;52.082;5.108;2023-09-08T10:59:58;6.28;;;4.22;;
69912;SDS011;57198;52.082;5.108;2023-09-08T11:02:42;4.63;;;3.58;;
69912;SDS011;57198;52.082;5.108;2023-09-08T11:05:11;6.70;;;3.80;;
69912;SDS011;57198;52.082;5.108;2023-09-08T11:07:43;5.50;;;3.60;;
69912;SDS011;57198;52.082;5.108;2023-09-08T11:10:11;4.05;;;3.45;;
69912;SDS011;57198;52.082;5.108;2023-09-08T11:12:38;4.65;;;3.72;;
69912;SDS011;57198;52.082;5.108;2023-09-08T11:15:06;4.22;;;2.90;;
69912;SDS011;57198;52.082;5.108;2023-09-08T11:17:35;2.83;;;2.37;;
69912;SDS011;57198;52.082;5.108;2023-09-08T11:20:06;3.65;;;3.10;;
69912;SDS011;57198;52.082;5.108;2023-09-08T11:22:38;6.60;;;3.70;;
69912;SDS011;57198;52.082;5.108;2023-09-08T11:25:07;7.32;;;3.95;;
69912;SDS011;57198;52.082;5.108;2023-09-08T11:27:37;6.68;;;3.63;;
69912;SDS011;57198;52.082;5.108;2023-09-08T11:30:07;8.77;;;3.40;;
69912;SDS011;57198;52.082;5.108;2023-09-08T11:32:35;6.15;;;3.45;;
69912;SDS011;57198;52.082;5.108;2023-09-08T11:35:06;8.25;;;4.20;;
69912;SDS011;57198;52.082;5.108;2023-09-08T11:37:38;5.50;;;4.60;;
69912;SDS011;57198;52.082;5.108;2023-09-08T11:40:07;5.38;;;4.00;;
69912;SDS011;57198;52.082;5.108;2023-09-08T11:42:39;8.23;;;4.23;;
69912;SDS011;57198;52.082;5.108;2023-09-08T11:45:10;6.82;;;3.42;;
69912;SDS011;57198;52.082;5.108;2023-09-08T11:47:42;8.15;;;4.07;;
69912;SDS011;57198;52.082;5.108;2023-09-08T11:50:10;5.22;;;4.63;;
69912;SDS011;57198;52.082;5.108;2023-09-08T11:52:45;11.57;;;4.40;;
69912;SDS011;57198;52.082;5.108;2023-09-08T11:55:12;4.90;;;4.50;;
69912;SDS011;57198;52.082;5.108;2023-09-08T11:57:40;4.20;;;3.17;;
69912;SDS011;57198;52.082;5.108;2023-09-08T12:00:08;4.85;;;4.32;;
69912;SDS011;57198;52.082;5.108;2023-09-08T12:02:38;5.72;;;4.13;;
69912;SDS011;57198;52.082;5.108;2023-09-08T12:05:10;8.98;;;5.00;;
69912;SDS011;57198;52.082;5.108;2023-09-08T12:07:39;5.20;;;3.20;;
69912;SDS011;57198;52.082;5.108;2023-09-08T12:10:09;7.35;;;4.18;;
69912;SDS011;57198;52.082;5.108;2023-09-08T12:12:43;5.50;;;3.60;;
69912;SDS011;57198;52.082;5.108;2023-09-08T12:15:11;5.25;;;3.70;;
69912;SDS011;57198;52.082;5.108;2023-09-08T12:17:48;4.50;;;3.80;;
69912;SDS011;57198;52.082;5.108;2023-09-08T12:20:15;4.30;;;3.67;;
69912;SDS011;57198;52.082;5.108;2023-09-08T12:22:49;6.75;;;4.00;;
69912;SDS011;57198;52.082;5.108;2023-09-08T12:25:17;6.80;;;3.35;;
69912;SDS011;57198;52.082;5.108;2023-09-08T12:27:45;7.30;;;4.10;;
69912;SDS011;57198;52.082;5.108;2023-09-08T12:30:17;4.95;;;3.72;;
69912;SDS011;57198;52.082;5.108;2023-09-08T12:32:48;5.90;;;3.90;;
69912;SDS011;57198;52.082;5.108;2023-09-08T12:35:20;8.23;;;3.80;;
69912;SDS011;57198;52.082;5.108;2023-09-08T12:37:54;4.95;;;3.15;;
69912;SDS011;57198;52.082;5.108;2023-09-08T12:40:21;4.45;;;3.60;;
69912;SDS011;57198;52.082;5.108;2023-09-08T12:42:48;6.93;;;4.13;;
69912;SDS011;57198;52.082;5.108;2023-09-08T12:45:23;7.73;;;3.27;;
69912;SDS011;57198;52.082;5.108;2023-09-08T12:47:50;7.15;;;3.10;;
69912;SDS011;57198;52.082;5.108;2023-09-08T12:50:18;3.83;;;2.90;;
69912;SDS011;57198;52.082;5.108;2023-09-08T12:52:45;7.10;;;3.30;;
69912;SDS011;57198;52.082;5.108;2023-09-08T12:55:12;5.20;;;3.10;;
69912;SDS011;57198;52.082;5.108;2023-09-08T12:57:40;4.87;;;3.00;;
69912;SDS011;57198;52.082;5.108;2023-09-08T13:00:08;6.18;;;3.20;;
69912;SDS011;57198;52.082;5.108;2023-09-08T13:02:36;4.93;;;3.42;;
69912;SDS011;57198;52.082;5.108;2023-09-08T13:05:03;6.15;;;3.55;;
69912;SDS011;57198;52.082;5.108;2023-09-08T13:07:31;3.72;;;3.38;;
69912;SDS011;57198;52.082;5.108;2023-09-08T13:09:58;6.10;;;3.53;;
69912;SDS011;57198;52.082;5.108;2023-09-08T13:12:26;8.18;;;3.20;;
69912;SDS011;57198;52.082;5.108;2023-09-08T13:14:53;6.47;;;3.22;;
69912;SDS011;57198;52.082;5.108;2023-09-08T13:17:20;7.10;;;3.72;;
69912;SDS011;57198;52.082;5.108;2023-09-08T13:19:48;4.72;;;3.45;;
69912;SDS011;57198;52.082;5.108;2023-09-08T13:22:15;4.00;;;3.50;;
69912;SDS011;57198;52.082;5.108;2023-09-08T13:24:43;4.65;;;3.47;;
69912;SDS011;57198;52.082;5.108;2023-09-08T13:27:10;6.03;;;3.10;;
69912;SDS011;57198;52.082;5.108;2023-09-08T13:29:38;6.35;;;3.55;;
69912;SDS011;57198;52.082;5.108;2023-09-08T13:32:05;4.97;;;2.95;;
69912;SDS011;57198;52.082;5.108;2023-09-08T13:34:33;4.10;;;2.57;;
69912;SDS011;57198;52.082;5.108;2023-09-08T13:37:01;5.85;;;2.50;;
69912;SDS011;57198;52.082;5.108;2023-09-08T13:39:29;3.00;;;2.45;;
69912;SDS011;57198;52.082;5.108;2023-09-08T13:41:58;4.18;;;2.40;;
69912;SDS011;57198;52.082;5.108;2023-09-08T13:44:26;4.20;;;2.80;;
69912;SDS011;57198;52.082;5.108;2023-09-08T13:46:54;4.63;;;2.80;;
69912;SDS011;57198;52.082;5.108;2023-09-08T13:49:22;4.38;;;2.90;;
69912;SDS011;57198;52.082;5.108;2023-09-08T13:51:52;7.07;;;3.20;;
69912;SDS011;57198;52.082;5.108;2023-09-08T13:54:22;4.72;;;2.85;;
69912;SDS011;57198;52.082;5.108;2023-09-08T13:57:01;5.35;;;3.08;;
69912;SDS011;57198;52.082;5.108;2023-09-08T13:59:34;6.13;;;2.90;;
69912;SDS011;57198;52.082;5.108;2023-09-08T14:02:03;4.68;;;2.90;;
69912;SDS011;57198;52.082;5.108;2023-09-08T14:04:33;5.63;;;2.97;;
69912;SDS011;57198;52.082;5.108;2023-09-08T14:07:06;6.25;;;2.83;;
69912;SDS011;57198;52.082;5.108;2023-09-08T14:09:43;3.55;;;3.25;;
69912;SDS011;57198;52.082;5.108;2023-09-08T14:12:13;4.87;;;3.03;;
69912;SDS011;57198;52.082;5.108;2023-09-08T14:14:43;7.55;;;3.40;;
69912;SDS011;57198;52.082;5.108;2023-09-08T14:17:11;4.43;;;3.58;;
69912;SDS011;57198;52.082;5.108;2023-09-08T14:19:38;5.63;;;3.63;;
69912;SDS011;57198;52.082;5.108;2023-09-08T14:22:06;8.05;;;4.00;;
69912;SDS011;57198;52.082;5.108;2023-09-08T14:24:33;4.40;;;3.93;;
69912;SDS011;57198;52.082;5.108;2023-09-08T14:27:00;5.30;;;3.30;;
69912;SDS011;57198;52.082;5.108;2023-09-08T14:29:28;6.07;;;3.78;;
69912;SDS011;57198;52.082;5.108;2023-09-08T14:31:55;8.23;;;3.60;;
69912;SDS011;57198;52.082;5.108;2023-09-08T14:34:22;4.07;;;3.70;;
69912;SDS011;57198;52.082;5.108;2023-09-08T14:36:50;6.70;;;3.70;;
69912;SDS011;57198;52.082;5.108;2023-09-08T14:39:17;8.65;;;3.70;;
69912;SDS011;57198;52.082;5.108;2023-09-08T14:41:45;4.05;;;3.65;;
69912;SDS011;57198;52.082;5.108;2023-09-08T14:44:12;8.10;;;3.90;;
69912;SDS011;57198;52.082;5.108;2023-09-08T14:46:39;6.18;;;4.22;;
69912;SDS011;57198;52.082;5.108;2023-09-08T14:49:07;5.57;;;3.83;;
69912;SDS011;57198;52.082;5.108;2023-09-08T14:51:34;5.45;;;4.00;;